This is the latest recevied weather packets stored in our database for station/object VK5TRM-14. If no packets are shown the sender has not sent any weather packets the latest 10 day(s).
| Time | Temp. | Humidity | Pressure | Rain* | Wind** | Luminosity | Snow |
|---|---|---|---|---|---|---|---|
| 1777477505 | 13.89° C | 47% | 1023.7 hPa | 0 mm | - | - | - |
| 1777476605 | 13.89° C | 49% | 1023.9 hPa | 0 mm | - | - | - |
| 1777475705 | 13.89° C | 49% | 1023.9 hPa | 0 mm | - | - | - |
| 1777474805 | 15.56° C | 47% | 1024 hPa | 0 mm | - | - | - |
| 1777473905 | 15.56° C | 47% | 1024 hPa | 0 mm | - | - | - |
| 1777473005 | 12.78° C | 50% | 1024.1 hPa | 0 mm | - | - | - |
| 1777472105 | 12.78° C | 50% | 1024.1 hPa | 0 mm | - | - | - |
| 1777471205 | 12.78° C | 50% | 1024.2 hPa | 0 mm | - | - | - |
| 1777470304 | 12.78° C | 50% | 1024.2 hPa | 0 mm | - | - | - |
| 1777469405 | 13.33° C | 48% | 1024.3 hPa | 0 mm | - | - | - |
| 1777468505 | 13.33° C | 48% | 1024.3 hPa | 0 mm | - | - | - |
| 1777467604 | 13.89° C | 48% | 1024.4 hPa | 0 mm | - | - | - |
| 1777466705 | 13.89° C | 48% | 1024.4 hPa | 0 mm | - | - | - |
| 1777465805 | 14.44° C | 46% | 1024.5 hPa | 0 mm | - | - | - |
| 1777464905 | 14.44° C | 46% | 1024.5 hPa | 0 mm | - | - | - |
| 1777464005 | 17.22° C | 39% | 1024.3 hPa | 0 mm | - | - | - |
| 1777463105 | 17.22° C | 39% | 1024.3 hPa | 0 mm | - | - | - |
| 1777462205 | 18.33° C | 41% | 1024.3 hPa | 0 mm | - | - | - |
| 1777461305 | 18.33° C | 41% | 1024.3 hPa | 0 mm | - | - | - |
| 1777460405 | 18.33° C | 41% | 1024.2 hPa | 0 mm | - | - | - |
| 1777459505 | 18.33° C | 41% | 1024.2 hPa | 0 mm | - | - | - |
| 1777458605 | 19.44° C | 39% | 1024.1 hPa | 0 mm | - | - | - |
| 1777457705 | 19.44° C | 39% | 1024.1 hPa | 0 mm | - | - | - |
| 1777456805 | 20.56° C | 36% | 1024.1 hPa | 0 mm | - | - | - |
| 1777455905 | 20.56° C | 36% | 1024.1 hPa | 0 mm | - | - | - |
* Rain since midnight (hover to see other rain measurements)
** Current wind speed in m/s (hover to see current wind gust speed)